Meteo Giornale » Osservazioni meteo Italia » Roma Fiumicino

ore: 05:20 - Osservazioni Meteo Roma Fiumicino
Lat. 41° 48' N Lon. 12° 14' E Alt. 2 metri s.l.m.

sereno Europe/Rome

20 °C

Sereno

Temp. 24 Ore

20 °C

33 °C

Est

11.1 Km/h

Dew point 17 °C

Umidità 82 %

Visibilità  10 Km

Il sole sorge alle ore 05:59

Il sole tramonta alle ore 20:35

Data e Ora Cielo e Fenomeni T °C DP °C Um. % Pres. hPa Vis. km Vento km/h
Oggi h: 05:20 sereno Sereno 20 17 82 1015 10 E 11.1
Oggi h: 04:50 sereno Sereno 20 17 82 1015 10 E 11.1
Oggi h: 04:20 sereno Sereno 20 18 88 1015 10 E 7.4
Oggi h: 03:50 sereno Sereno 21 18 82 1015 10 E 9.3
Oggi h: 03:20 sereno Sereno 20 18 88 1016 10 E/NE 7.4
Oggi h: 02:50 sereno Sereno 21 18 82 1016 10 N 5.5
Oggi h: 02:20 sereno Sereno 22 19 83 1016 10 N 3.7
Oggi h: 01:50 sereno Sereno 23 19 78 1016 10 E/SE 7.4
Oggi h: 01:20 sereno Sereno 23 20 83 1016 10 N 5.5
Oggi h: 00:50 sereno Sereno 24 20 78 1016 10 N 5.5
Oggi h: 00:20 sereno Sereno 24 21 83 1016 10 E/SE 7.4
Ieri h: 23:50 sereno Sereno 24 21 83 1016 10 SE 7.4
Ieri h: 23:20 sereno Sereno 25 22 83 1016 10 SE 7.4
Ieri h: 22:50 sereno Sereno 25 22 83 1017 10 S/SE 7.4
Ieri h: 22:20 sereno Sereno 26 22 78 1016 10 S/SE 9.3
Ieri h: 21:50 sereno Sereno 26 22 78 1016 10 S/SE 11.1
Ieri h: 21:20 sereno Sereno 26 22 78 1016 10 S 7.4
Ieri h: 20:50 sereno Sereno 26 22 78 1016 10 S/SE 11.1
Ieri h: 20:20 sereno Sereno 27 22 74 1015 10 S/SE 16.7
Ieri h: 19:50 sereno Sereno 27 22 74 1016 10 S/SE 14.8
Ieri h: 19:20 sereno Sereno 27 22 74 1016 10 S 13
Ieri h: 18:50 sereno Sereno 28 22 69 1016 10 S 9.3
Ieri h: 18:20 sereno Sereno 28 22 69 1016 10 S/SO 14.8
Ieri h: 17:50 sereno Sereno 28 22 69 1016 10 S 16.7
Ieri h: 17:20 sereno Sereno 29 22 66 1016 10 S/SO 18.5
Ieri h: 16:50 sereno Sereno 30 21 58 1016 10 S 14.8
Ieri h: 16:20 sereno Sereno 29 21 62 1016 10 S 13
Ieri h: 15:50 sereno Sereno 29 21 62 1017 10 S 14.8
Ieri h: 15:20 sereno Sereno 29 20 58 1017 10 S 16.7
Ieri h: 14:50 sereno Sereno 31 19 48 1017 10 S 18.5
Ieri h: 14:20 sereno Sereno 31 18 45 1017 10 S/SO 24
Ieri h: 13:50 sereno Sereno 32 14 33 1017 10 S 18.5
Ieri h: 13:20 sereno Sereno 32 14 33 1017 10 S/SE 24
Ieri h: 12:50 sereno Sereno 33 15 33 1016 10 S/SE 24
Ieri h: 12:20 poco_nuvoloso Poco Nuvoloso 32 13 31 1017 10 S 13
Ieri h: 11:50 sereno Sereno 33 12 27 1017 10 S 13
Ieri h: 11:20 sereno Sereno 32 13 31 1017 10 S 14.8
Ieri h: 10:50 sereno Sereno 33 12 27 1017 10 S/SO 11.1
Ieri h: 10:20 sereno Sereno 31 12 31 1016 10 S 9.3
Ieri h: 09:50 sereno Sereno 30 13 35 1016 10 SE 7.4
Ieri h: 09:20 sereno Sereno 27 14 44 1016 10 E 16.7
Ieri h: 08:50 coperto_pioggia Pioggia Debole 25 13 47 1017 10 N 5.5
Ieri h: 08:20 sereno Sereno 26 13 44 1016 10 E 7.4
Ieri h: 07:50 sereno Sereno 25 13 47 1016 10 E/SE 11.1
Ieri h: 07:20 sereno Sereno 24 12 47 1016 10 SE 9.3
Ieri h: 06:50 sereno Sereno 24 12 47 1016 10 NE 13